sensor_id;sensor_type;location;lat;lon;timestamp;temperature;humidity
15997;DHT22;8103;51.340;12.326;2023-05-19T00:01:18;12.90;80.30
15997;DHT22;8103;51.340;12.326;2023-05-19T00:03:50;12.90;80.40
15997;DHT22;8103;51.340;12.326;2023-05-19T00:06:24;12.90;80.40
15997;DHT22;8103;51.340;12.326;2023-05-19T00:08:56;12.90;80.40
15997;DHT22;8103;51.340;12.326;2023-05-19T00:11:24;12.80;79.70
15997;DHT22;8103;51.340;12.326;2023-05-19T00:13:53;12.80;80.10
15997;DHT22;8103;51.340;12.326;2023-05-19T00:16:21;12.90;80.40
15997;DHT22;8103;51.340;12.326;2023-05-19T00:18:48;12.80;79.70
15997;DHT22;8103;51.340;12.326;2023-05-19T00:21:15;12.80;80.00
15997;DHT22;8103;51.340;12.326;2023-05-19T00:23:42;12.80;80.10
15997;DHT22;8103;51.340;12.326;2023-05-19T00:26:09;12.80;80.60
15997;DHT22;8103;51.340;12.326;2023-05-19T00:28:36;12.70;81.00
15997;DHT22;8103;51.340;12.326;2023-05-19T00:31:04;12.70;81.20
15997;DHT22;8103;51.340;12.326;2023-05-19T00:33:32;12.70;82.00
15997;DHT22;8103;51.340;12.326;2023-05-19T00:36:02;12.70;83.40
15997;DHT22;8103;51.340;12.326;2023-05-19T00:38:33;12.70;83.00
15997;DHT22;8103;51.340;12.326;2023-05-19T00:41:02;12.70;83.00
15997;DHT22;8103;51.340;12.326;2023-05-19T00:43:29;12.70;83.40
15997;DHT22;8103;51.340;12.326;2023-05-19T00:45:56;12.70;83.90
15997;DHT22;8103;51.340;12.326;2023-05-19T00:48:25;12.60;84.30
15997;DHT22;8103;51.340;12.326;2023-05-19T00:50:53;12.70;84.80
15997;DHT22;8103;51.340;12.326;2023-05-19T00:53:21;12.50;85.80
15997;DHT22;8103;51.340;12.326;2023-05-19T00:55:48;12.60;89.30
15997;DHT22;8103;51.340;12.326;2023-05-19T00:58:16;12.60;87.00
15997;DHT22;8103;51.340;12.326;2023-05-19T01:00:44;12.50;87.70
15997;DHT22;8103;51.340;12.326;2023-05-19T01:03:11;12.50;87.50
15997;DHT22;8103;51.340;12.326;2023-05-19T01:05:41;12.50;87.60
15997;DHT22;8103;51.340;12.326;2023-05-19T01:08:10;12.50;87.70
15997;DHT22;8103;51.340;12.326;2023-05-19T01:10:37;12.40;87.60
15997;DHT22;8103;51.340;12.326;2023-05-19T01:13:03;12.40;88.00
15997;DHT22;8103;51.340;12.326;2023-05-19T01:15:45;12.30;88.60
15997;DHT22;8103;51.340;12.326;2023-05-19T01:18:31;12.30;85.90
15997;DHT22;8103;51.340;12.326;2023-05-19T01:27:04;12.20;87.10
15997;DHT22;8103;51.340;12.326;2023-05-19T01:32:26;12.20;87.50
15997;DHT22;8103;51.340;12.326;2023-05-19T01:34:54;12.20;87.60
15997;DHT22;8103;51.340;12.326;2023-05-19T01:37:23;12.10;87.90
15997;DHT22;8103;51.340;12.326;2023-05-19T01:39:51;12.10;88.20
15997;DHT22;8103;51.340;12.326;2023-05-19T01:42:19;12.10;88.50
15997;DHT22;8103;51.340;12.326;2023-05-19T01:44:46;12.10;88.70
15997;DHT22;8103;51.340;12.326;2023-05-19T01:47:13;12.10;88.90
15997;DHT22;8103;51.340;12.326;2023-05-19T01:49:40;12.10;88.90
15997;DHT22;8103;51.340;12.326;2023-05-19T01:52:07;12.10;88.80
15997;DHT22;8103;51.340;12.326;2023-05-19T01:54:33;12.10;88.80
15997;DHT22;8103;51.340;12.326;2023-05-19T02:00:53;12.10;88.30
15997;DHT22;8103;51.340;12.326;2023-05-19T02:03:46;12.10;88.30
15997;DHT22;8103;51.340;12.326;2023-05-19T02:09:24;12.00;88.00
15997;DHT22;8103;51.340;12.326;2023-05-19T02:12:02;12.00;88.10
15997;DHT22;8103;51.340;12.326;2023-05-19T02:14:38;12.00;88.30
15997;DHT22;8103;51.340;12.326;2023-05-19T02:17:05;12.00;88.40
15997;DHT22;8103;51.340;12.326;2023-05-19T02:19:35;12.00;88.60
15997;DHT22;8103;51.340;12.326;2023-05-19T02:22:02;11.90;89.40
15997;DHT22;8103;51.340;12.326;2023-05-19T02:24:29;11.90;90.00
15997;DHT22;8103;51.340;12.326;2023-05-19T02:26:55;11.60;90.00
15997;DHT22;8103;51.340;12.326;2023-05-19T02:29:22;11.80;90.40
15997;DHT22;8103;51.340;12.326;2023-05-19T02:31:49;11.80;90.80
15997;DHT22;8103;51.340;12.326;2023-05-19T02:34:16;11.70;91.20
15997;DHT22;8103;51.340;12.326;2023-05-19T02:36:43;11.70;91.60
15997;DHT22;8103;51.340;12.326;2023-05-19T02:39:10;11.70;91.90
15997;DHT22;8103;51.340;12.326;2023-05-19T02:41:38;11.70;92.20
15997;DHT22;8103;51.340;12.326;2023-05-19T02:44:04;11.70;92.50
15997;DHT22;8103;51.340;12.326;2023-05-19T02:46:31;11.70;92.90
15997;DHT22;8103;51.340;12.326;2023-05-19T02:48:58;11.60;93.10
15997;DHT22;8103;51.340;12.326;2023-05-19T02:51:26;11.60;93.50
15997;DHT22;8103;51.340;12.326;2023-05-19T02:53:53;11.60;93.80
15997;DHT22;8103;51.340;12.326;2023-05-19T02:58:47;11.60;89.20
15997;DHT22;8103;51.340;12.326;2023-05-19T03:01:14;11.60;90.20
15997;DHT22;8103;51.340;12.326;2023-05-19T03:03:42;11.60;90.60
15997;DHT22;8103;51.340;12.326;2023-05-19T03:06:08;11.60;90.80
15997;DHT22;8103;51.340;12.326;2023-05-19T03:08:35;11.60;91.10
15997;DHT22;8103;51.340;12.326;2023-05-19T03:11:02;11.50;91.20
15997;DHT22;8103;51.340;12.326;2023-05-19T03:13:29;11.50;91.80
15997;DHT22;8103;51.340;12.326;2023-05-19T03:15:56;11.50;91.60
15997;DHT22;8103;51.340;12.326;2023-05-19T03:18:27;11.50;91.70
15997;DHT22;8103;51.340;12.326;2023-05-19T03:20:54;11.50;91.80
15997;DHT22;8103;51.340;12.326;2023-05-19T03:23:22;11.50;92.00
15997;DHT22;8103;51.340;12.326;2023-05-19T03:25:48;11.40;92.20
15997;DHT22;8103;51.340;12.326;2023-05-19T03:28:15;11.40;92.40
15997;DHT22;8103;51.340;12.326;2023-05-19T03:30:42;11.40;93.00
15997;DHT22;8103;51.340;12.326;2023-05-19T03:33:09;11.40;92.90
15997;DHT22;8103;51.340;12.326;2023-05-19T03:35:36;11.40;92.90
15997;DHT22;8103;51.340;12.326;2023-05-19T03:38:03;11.40;93.20
15997;DHT22;8103;51.340;12.326;2023-05-19T03:40:30;11.30;93.30
15997;DHT22;8103;51.340;12.326;2023-05-19T03:42:56;11.30;93.70
15997;DHT22;8103;51.340;12.326;2023-05-19T03:45:24;11.30;93.90
15997;DHT22;8103;51.340;12.326;2023-05-19T03:47:51;11.30;94.30
15997;DHT22;8103;51.340;12.326;2023-05-19T03:50:17;11.30;94.60
15997;DHT22;8103;51.340;12.326;2023-05-19T03:52:44;11.30;95.00
15997;DHT22;8103;51.340;12.326;2023-05-19T03:55:13;11.30;95.50
15997;DHT22;8103;51.340;12.326;2023-05-19T03:57:42;11.20;96.10
15997;DHT22;8103;51.340;12.326;2023-05-19T04:00:10;11.20;97.00
15997;DHT22;8103;51.340;12.326;2023-05-19T04:02:37;11.20;97.50
15997;DHT22;8103;51.340;12.326;2023-05-19T04:05:04;11.20;98.10
15997;DHT22;8103;51.340;12.326;2023-05-19T04:07:32;11.30;98.50
15997;DHT22;8103;51.340;12.326;2023-05-19T04:09:59;11.30;98.50
15997;DHT22;8103;51.340;12.326;2023-05-19T04:12:27;11.30;98.40
15997;DHT22;8103;51.340;12.326;2023-05-19T04:14:53;11.30;98.50
15997;DHT22;8103;51.340;12.326;2023-05-19T04:17:20;11.40;98.60
15997;DHT22;8103;51.340;12.326;2023-05-19T04:19:49;11.40;98.70
15997;DHT22;8103;51.340;12.326;2023-05-19T04:22:16;11.50;98.90
15997;DHT22;8103;51.340;12.326;2023-05-19T04:24:43;11.50;98.80
15997;DHT22;8103;51.340;12.326;2023-05-19T04:27:10;11.60;98.80
15997;DHT22;8103;51.340;12.326;2023-05-19T04:29:38;11.60;98.80
15997;DHT22;8103;51.340;12.326;2023-05-19T04:32:06;11.60;99.00
15997;DHT22;8103;51.340;12.326;2023-05-19T04:34:34;11.70;98.90
15997;DHT22;8103;51.340;12.326;2023-05-19T04:37:01;11.70;99.00
15997;DHT22;8103;51.340;12.326;2023-05-19T04:39:28;11.80;99.20
15997;DHT22;8103;51.340;12.326;2023-05-19T04:41:54;11.80;99.30
15997;DHT22;8103;51.340;12.326;2023-05-19T04:44:22;12.10;99.30
15997;DHT22;8103;51.340;12.326;2023-05-19T04:46:48;11.90;99.30
15997;DHT22;8103;51.340;12.326;2023-05-19T04:49:19;11.90;99.30
15997;DHT22;8103;51.340;12.326;2023-05-19T04:51:46;12.00;99.30
15997;DHT22;8103;51.340;12.326;2023-05-19T04:54:15;12.00;99.30
15997;DHT22;8103;51.340;12.326;2023-05-19T04:56:42;12.00;99.00
15997;DHT22;8103;51.340;12.326;2023-05-19T04:59:09;12.10;99.00
15997;DHT22;8103;51.340;12.326;2023-05-19T05:01:36;12.10;98.90
15997;DHT22;8103;51.340;12.326;2023-05-19T05:04:06;12.20;98.80
15997;DHT22;8103;51.340;12.326;2023-05-19T05:06:33;12.30;98.30
15997;DHT22;8103;51.340;12.326;2023-05-19T05:08:59;12.30;98.30
15997;DHT22;8103;51.340;12.326;2023-05-19T05:11:26;12.40;98.20
15997;DHT22;8103;51.340;12.326;2023-05-19T05:13:53;12.50;98.20
15997;DHT22;8103;51.340;12.326;2023-05-19T05:16:23;12.50;98.20
15997;DHT22;8103;51.340;12.326;2023-05-19T05:18:50;12.50;98.20
15997;DHT22;8103;51.340;12.326;2023-05-19T05:21:17;12.60;98.60
15997;DHT22;8103;51.340;12.326;2023-05-19T05:23:44;12.70;98.30
15997;DHT22;8103;51.340;12.326;2023-05-19T05:26:16;12.70;98.20
15997;DHT22;8103;51.340;12.326;2023-05-19T05:28:48;12.80;98.30
15997;DHT22;8103;51.340;12.326;2023-05-19T05:31:15;12.80;98.30
15997;DHT22;8103;51.340;12.326;2023-05-19T05:33:42;12.90;98.30
15997;DHT22;8103;51.340;12.326;2023-05-19T05:36:09;13.00;98.20
15997;DHT22;8103;51.340;12.326;2023-05-19T05:38:36;13.10;98.20
15997;DHT22;8103;51.340;12.326;2023-05-19T05:41:03;13.10;98.10
15997;DHT22;8103;51.340;12.326;2023-05-19T05:43:29;13.20;98.00
15997;DHT22;8103;51.340;12.326;2023-05-19T05:45:56;13.30;97.70
15997;DHT22;8103;51.340;12.326;2023-05-19T05:48:23;13.40;97.70
15997;DHT22;8103;51.340;12.326;2023-05-19T05:50:51;13.60;97.80
15997;DHT22;8103;51.340;12.326;2023-05-19T05:53:19;13.70;97.60
15997;DHT22;8103;51.340;12.326;2023-05-19T05:55:47;13.90;97.50
15997;DHT22;8103;51.340;12.326;2023-05-19T05:58:14;14.00;97.30
15997;DHT22;8103;51.340;12.326;2023-05-19T06:00:42;14.10;97.30
15997;DHT22;8103;51.340;12.326;2023-05-19T06:03:10;14.20;97.70
15997;DHT22;8103;51.340;12.326;2023-05-19T06:05:37;14.30;97.20
15997;DHT22;8103;51.340;12.326;2023-05-19T06:08:04;14.50;96.80
15997;DHT22;8103;51.340;12.326;2023-05-19T06:10:31;14.60;96.70
15997;DHT22;8103;51.340;12.326;2023-05-19T06:12:58;14.70;96.30
15997;DHT22;8103;51.340;12.326;2023-05-19T06:15:25;14.80;95.90
15997;DHT22;8103;51.340;12.326;2023-05-19T06:17:52;14.80;95.50
15997;DHT22;8103;51.340;12.326;2023-05-19T06:20:20;14.90;95.60
15997;DHT22;8103;51.340;12.326;2023-05-19T06:22:46;15.00;95.60
15997;DHT22;8103;51.340;12.326;2023-05-19T06:25:13;14.90;95.50
15997;DHT22;8103;51.340;12.326;2023-05-19T06:27:40;14.90;95.40
15997;DHT22;8103;51.340;12.326;2023-05-19T06:30:07;15.00;95.40
15997;DHT22;8103;51.340;12.326;2023-05-19T06:32:34;15.00;95.40
15997;DHT22;8103;51.340;12.326;2023-05-19T06:35:01;15.00;95.70
15997;DHT22;8103;51.340;12.326;2023-05-19T06:37:27;15.00;95.80
15997;DHT22;8103;51.340;12.326;2023-05-19T06:39:54;14.90;96.10
15997;DHT22;8103;51.340;12.326;2023-05-19T06:42:21;15.00;96.20
15997;DHT22;8103;51.340;12.326;2023-05-19T06:44:52;15.00;96.10
15997;DHT22;8103;51.340;12.326;2023-05-19T06:47:18;15.00;95.50
15997;DHT22;8103;51.340;12.326;2023-05-19T06:49:46;15.00;95.70
15997;DHT22;8103;51.340;12.326;2023-05-19T06:52:16;15.10;95.80
15997;DHT22;8103;51.340;12.326;2023-05-19T06:54:43;15.20;95.70
15997;DHT22;8103;51.340;12.326;2023-05-19T06:57:09;15.20;95.60
15997;DHT22;8103;51.340;12.326;2023-05-19T06:59:36;15.30;95.40
15997;DHT22;8103;51.340;12.326;2023-05-19T07:02:03;15.30;95.50
15997;DHT22;8103;51.340;12.326;2023-05-19T07:04:30;15.40;95.40
15997;DHT22;8103;51.340;12.326;2023-05-19T07:06:57;15.40;95.40
15997;DHT22;8103;51.340;12.326;2023-05-19T07:09:24;15.50;95.30
15997;DHT22;8103;51.340;12.326;2023-05-19T07:11:50;15.60;95.40
15997;DHT22;8103;51.340;12.326;2023-05-19T07:14:17;15.70;95.40
15997;DHT22;8103;51.340;12.326;2023-05-19T07:16:44;15.80;95.10
15997;DHT22;8103;51.340;12.326;2023-05-19T07:19:11;16.10;94.90
15997;DHT22;8103;51.340;12.326;2023-05-19T07:21:37;16.10;94.70
15997;DHT22;8103;51.340;12.326;2023-05-19T07:24:04;16.20;94.30
15997;DHT22;8103;51.340;12.326;2023-05-19T07:26:31;16.40;94.00
15997;DHT22;8103;51.340;12.326;2023-05-19T07:28:58;16.50;93.90
15997;DHT22;8103;51.340;12.326;2023-05-19T07:31:25;16.70;93.10
15997;DHT22;8103;51.340;12.326;2023-05-19T07:33:51;16.90;92.50
15997;DHT22;8103;51.340;12.326;2023-05-19T07:36:20;17.10;90.80
15997;DHT22;8103;51.340;12.326;2023-05-19T07:38:46;17.10;89.80
15997;DHT22;8103;51.340;12.326;2023-05-19T07:41:13;17.30;88.10
15997;DHT22;8103;51.340;12.326;2023-05-19T07:43:40;17.30;87.30
15997;DHT22;8103;51.340;12.326;2023-05-19T07:46:07;17.30;86.80
15997;DHT22;8103;51.340;12.326;2023-05-19T07:48:34;17.40;85.50
15997;DHT22;8103;51.340;12.326;2023-05-19T07:51:02;17.40;84.80
15997;DHT22;8103;51.340;12.326;2023-05-19T07:53:29;17.60;84.50
15997;DHT22;8103;51.340;12.326;2023-05-19T07:55:55;17.80;86.70
15997;DHT22;8103;51.340;12.326;2023-05-19T07:58:24;18.10;86.30
15997;DHT22;8103;51.340;12.326;2023-05-19T08:00:50;18.50;91.30
15997;DHT22;8103;51.340;12.326;2023-05-19T08:03:18;18.70;90.30
15997;DHT22;8103;51.340;12.326;2023-05-19T08:09:33;19.00;76.10
15997;DHT22;8103;51.340;12.326;2023-05-19T08:14:27;19.40;55.50
15997;DHT22;8103;51.340;12.326;2023-05-19T08:16:53;19.60;59.00
15997;DHT22;8103;51.340;12.326;2023-05-19T08:25:35;20.10;84.90
15997;DHT22;8103;51.340;12.326;2023-05-19T08:28:02;20.10;90.00
15997;DHT22;8103;51.340;12.326;2023-05-19T08:34:09;20.10;92.10
15997;DHT22;8103;51.340;12.326;2023-05-19T08:36:36;20.20;91.50
15997;DHT22;8103;51.340;12.326;2023-05-19T08:39:03;19.80;91.90
15997;DHT22;8103;51.340;12.326;2023-05-19T08:41:30;20.40;91.20
15997;DHT22;8103;51.340;12.326;2023-05-19T08:43:57;20.40;91.40
15997;DHT22;8103;51.340;12.326;2023-05-19T08:46:24;20.60;92.50
15997;DHT22;8103;51.340;12.326;2023-05-19T08:56:39;22.70;47.80
15997;DHT22;8103;51.340;12.326;2023-05-19T08:59:08;23.20;46.30
15997;DHT22;8103;51.340;12.326;2023-05-19T09:01:36;23.30;45.40
15997;DHT22;8103;51.340;12.326;2023-05-19T09:04:07;23.30;44.60
15997;DHT22;8103;51.340;12.326;2023-05-19T09:06:35;23.20;43.70
15997;DHT22;8103;51.340;12.326;2023-05-19T09:09:02;22.90;43.80
15997;DHT22;8103;51.340;12.326;2023-05-19T09:11:29;22.80;43.80
15997;DHT22;8103;51.340;12.326;2023-05-19T09:13:56;22.60;44.10
15997;DHT22;8103;51.340;12.326;2023-05-19T09:16:24;22.70;44.40
15997;DHT22;8103;51.340;12.326;2023-05-19T09:22:43;22.90;44.50
15997;DHT22;8103;51.340;12.326;2023-05-19T09:29:00;23.70;44.50
15997;DHT22;8103;51.340;12.326;2023-05-19T09:31:31;24.20;43.90
15997;DHT22;8103;51.340;12.326;2023-05-19T09:34:00;24.10;43.30
15997;DHT22;8103;51.340;12.326;2023-05-19T09:36:28;23.80;43.70
15997;DHT22;8103;51.340;12.326;2023-05-19T09:38:55;23.60;43.60
15997;DHT22;8103;51.340;12.326;2023-05-19T09:41:22;23.30;42.50
15997;DHT22;8103;51.340;12.326;2023-05-19T09:43:55;23.00;42.90
15997;DHT22;8103;51.340;12.326;2023-05-19T09:46:24;22.60;43.30
15997;DHT22;8103;51.340;12.326;2023-05-19T09:48:57;22.50;43.80
15997;DHT22;8103;51.340;12.326;2023-05-19T09:51:24;22.60;44.20
15997;DHT22;8103;51.340;12.326;2023-05-19T09:53:52;22.90;44.00
15997;DHT22;8103;51.340;12.326;2023-05-19T09:56:18;23.00;43.50
15997;DHT22;8103;51.340;12.326;2023-05-19T09:58:49;23.30;43.10
15997;DHT22;8103;51.340;12.326;2023-05-19T10:01:16;25.30;38.10
15997;DHT22;8103;51.340;12.326;2023-05-19T10:03:43;26.70;35.60
15997;DHT22;8103;51.340;12.326;2023-05-19T10:08:38;27.70;33.90
15997;DHT22;8103;51.340;12.326;2023-05-19T10:16:04;29.30;63.00
15997;DHT22;8103;51.340;12.326;2023-05-19T10:21:01;29.60;72.70
15997;DHT22;8103;51.340;12.326;2023-05-19T10:23:28;30.30;73.30
15997;DHT22;8103;51.340;12.326;2023-05-19T10:37:34;32.90;44.90
15997;DHT22;8103;51.340;12.326;2023-05-19T10:40:10;33.60;46.90
15997;DHT22;8103;51.340;12.326;2023-05-19T10:42:43;34.10;34.80
15997;DHT22;8103;51.340;12.326;2023-05-19T10:45:23;34.40;35.00
15997;DHT22;8103;51.340;12.326;2023-05-19T10:47:53;34.90;40.30
15997;DHT22;8103;51.340;12.326;2023-05-19T10:50:21;35.50;46.80
15997;DHT22;8103;51.340;12.326;2023-05-19T10:52:55;35.40;48.10
15997;DHT22;8103;51.340;12.326;2023-05-19T10:55:45;35.10;53.40
15997;DHT22;8103;51.340;12.326;2023-05-19T11:04:49;35.50;49.10
15997;DHT22;8103;51.340;12.326;2023-05-19T11:07:21;35.00;49.60
15997;DHT22;8103;51.340;12.326;2023-05-19T11:09:51;34.60;49.80
15997;DHT22;8103;51.340;12.326;2023-05-19T11:12:22;33.60;52.10
15997;DHT22;8103;51.340;12.326;2023-05-19T11:14:54;32.50;52.80
15997;DHT22;8103;51.340;12.326;2023-05-19T11:17:23;31.90;53.80
15997;DHT22;8103;51.340;12.326;2023-05-19T11:19:54;31.50;54.30
15997;DHT22;8103;51.340;12.326;2023-05-19T11:22:25;31.50;54.50
15997;DHT22;8103;51.340;12.326;2023-05-19T11:24:56;32.00;54.50
15997;DHT22;8103;51.340;12.326;2023-05-19T11:27:29;32.60;54.40
15997;DHT22;8103;51.340;12.326;2023-05-19T11:30:01;34.30;52.70
15997;DHT22;8103;51.340;12.326;2023-05-19T11:32:35;34.90;51.80
15997;DHT22;8103;51.340;12.326;2023-05-19T11:35:05;34.10;52.20
15997;DHT22;8103;51.340;12.326;2023-05-19T11:41:15;34.00;52.80
15997;DHT22;8103;51.340;12.326;2023-05-19T11:43:42;34.30;52.40
15997;DHT22;8103;51.340;12.326;2023-05-19T11:46:09;34.30;52.10
15997;DHT22;8103;51.340;12.326;2023-05-19T11:48:36;34.10;52.50
15997;DHT22;8103;51.340;12.326;2023-05-19T11:51:04;33.60;53.00
15997;DHT22;8103;51.340;12.326;2023-05-19T11:57:18;32.80;51.00
15997;DHT22;8103;51.340;12.326;2023-05-19T11:59:45;31.10;52.30
15997;DHT22;8103;51.340;12.326;2023-05-19T12:02:19;30.30;53.30
15997;DHT22;8103;51.340;12.326;2023-05-19T12:04:50;29.90;53.60
15997;DHT22;8103;51.340;12.326;2023-05-19T12:07:19;29.70;53.70
15997;DHT22;8103;51.340;12.326;2023-05-19T12:09:46;29.30;53.60
15997;DHT22;8103;51.340;12.326;2023-05-19T12:12:15;28.80;53.80
15997;DHT22;8103;51.340;12.326;2023-05-19T12:14:42;29.60;53.40
15997;DHT22;8103;51.340;12.326;2023-05-19T12:17:17;31.00;51.90
15997;DHT22;8103;51.340;12.326;2023-05-19T12:19:46;31.60;51.10
15997;DHT22;8103;51.340;12.326;2023-05-19T12:22:14;32.00;51.30
15997;DHT22;8103;51.340;12.326;2023-05-19T12:24:42;32.70;50.80
15997;DHT22;8103;51.340;12.326;2023-05-19T12:29:39;34.10;49.80
15997;DHT22;8103;51.340;12.326;2023-05-19T12:32:07;35.80;49.20
15997;DHT22;8103;51.340;12.326;2023-05-19T12:34:38;36.90;51.10
15997;DHT22;8103;51.340;12.326;2023-05-19T12:37:05;37.30;51.00
15997;DHT22;8103;51.340;12.326;2023-05-19T12:39:31;36.70;51.50
15997;DHT22;8103;51.340;12.326;2023-05-19T12:42:04;36.80;51.30
15997;DHT22;8103;51.340;12.326;2023-05-19T12:44:41;36.00;52.30
15997;DHT22;8103;51.340;12.326;2023-05-19T12:47:09;36.60;52.90
15997;DHT22;8103;51.340;12.326;2023-05-19T13:59:48;37.30;58.70
15997;DHT22;8103;51.340;12.326;2023-05-19T14:02:26;38.40;56.30
15997;DHT22;8103;51.340;12.326;2023-05-19T14:04:53;39.30;55.50
15997;DHT22;8103;51.340;12.326;2023-05-19T14:07:21;39.90;54.80
15997;DHT22;8103;51.340;12.326;2023-05-19T14:09:48;39.00;55.40
15997;DHT22;8103;51.340;12.326;2023-05-19T14:12:16;37.00;57.10
15997;DHT22;8103;51.340;12.326;2023-05-19T15:51:12;23.10;90.20
15997;DHT22;8103;51.340;12.326;2023-05-19T15:53:39;22.90;87.00
15997;DHT22;8103;51.340;12.326;2023-05-19T17:20:20;18.60;90.00
15997;DHT22;8103;51.340;12.326;2023-05-19T17:22:47;18.70;89.70
15997;DHT22;8103;51.340;12.326;2023-05-19T17:27:41;17.80;88.20
15997;DHT22;8103;51.340;12.326;2023-05-19T17:30:08;18.40;88.00
15997;DHT22;8103;51.340;12.326;2023-05-19T17:37:32;18.30;86.00
15997;DHT22;8103;51.340;12.326;2023-05-19T17:42:26;18.00;78.40
15997;DHT22;8103;51.340;12.326;2023-05-19T17:44:54;18.00;85.70
15997;DHT22;8103;51.340;12.326;2023-05-19T17:51:08;17.90;80.90
15997;DHT22;8103;51.340;12.326;2023-05-19T18:50:41;16.50;99.50
15997;DHT22;8103;51.340;12.326;2023-05-19T18:53:10;16.30;98.70
15997;DHT22;8103;51.340;12.326;2023-05-19T18:55:37;16.20;99.10
15997;DHT22;8103;51.340;12.326;2023-05-19T18:58:04;16.30;97.60
15997;DHT22;8103;51.340;12.326;2023-05-19T19:00:33;16.30;96.90
15997;DHT22;8103;51.340;12.326;2023-05-19T19:03:00;16.20;96.50
15997;DHT22;8103;51.340;12.326;2023-05-19T19:05:27;16.10;97.20
15997;DHT22;8103;51.340;12.326;2023-05-19T19:07:54;16.10;97.20
15997;DHT22;8103;51.340;12.326;2023-05-19T19:10:21;16.00;98.40
15997;DHT22;8103;51.340;12.326;2023-05-19T19:12:48;16.00;98.80
15997;DHT22;8103;51.340;12.326;2023-05-19T19:15:15;15.90;97.60
15997;DHT22;8103;51.340;12.326;2023-05-19T19:17:42;15.80;97.50
15997;DHT22;8103;51.340;12.326;2023-05-19T19:20:09;15.80;96.50
15997;DHT22;8103;51.340;12.326;2023-05-19T19:22:36;15.70;96.80
15997;DHT22;8103;51.340;12.326;2023-05-19T19:25:03;15.80;96.00
15997;DHT22;8103;51.340;12.326;2023-05-19T19:27:30;15.70;95.60
15997;DHT22;8103;51.340;12.326;2023-05-19T19:30:01;15.70;96.10
15997;DHT22;8103;51.340;12.326;2023-05-19T19:32:27;15.70;97.00
15997;DHT22;8103;51.340;12.326;2023-05-19T19:34:56;16.50;97.60
15997;DHT22;8103;51.340;12.326;2023-05-19T19:37:23;15.60;93.80
15997;DHT22;8103;51.340;12.326;2023-05-19T19:39:50;15.70;94.30
15997;DHT22;8103;51.340;12.326;2023-05-19T19:42:17;15.60;97.80
15997;DHT22;8103;51.340;12.326;2023-05-19T19:44:44;15.60;96.00
15997;DHT22;8103;51.340;12.326;2023-05-19T19:47:11;15.50;96.40
15997;DHT22;8103;51.340;12.326;2023-05-19T19:49:37;15.60;99.90
15997;DHT22;8103;51.340;12.326;2023-05-19T19:52:04;15.50;99.90
15997;DHT22;8103;51.340;12.326;2023-05-19T19:54:31;15.50;99.90
15997;DHT22;8103;51.340;12.326;2023-05-19T19:56:58;15.50;99.50
15997;DHT22;8103;51.340;12.326;2023-05-19T19:59:24;15.40;99.90
15997;DHT22;8103;51.340;12.326;2023-05-19T20:01:52;15.40;99.90
15997;DHT22;8103;51.340;12.326;2023-05-19T20:04:18;15.30;98.00
15997;DHT22;8103;51.340;12.326;2023-05-19T20:06:45;15.30;98.40
15997;DHT22;8103;51.340;12.326;2023-05-19T20:09:12;15.20;99.00
15997;DHT22;8103;51.340;12.326;2023-05-19T20:11:39;15.10;99.90
15997;DHT22;8103;51.340;12.326;2023-05-19T20:14:07;15.10;99.90
15997;DHT22;8103;51.340;12.326;2023-05-19T20:16:34;15.00;99.90
15997;DHT22;8103;51.340;12.326;2023-05-19T20:19:01;15.00;99.90
15997;DHT22;8103;51.340;12.326;2023-05-19T20:21:28;15.00;99.90
15997;DHT22;8103;51.340;12.326;2023-05-19T20:23:54;14.90;99.90
15997;DHT22;8103;51.340;12.326;2023-05-19T20:26:21;14.80;99.90
15997;DHT22;8103;51.340;12.326;2023-05-19T20:28:49;14.80;99.90
15997;DHT22;8103;51.340;12.326;2023-05-19T20:31:16;14.50;99.20
15997;DHT22;8103;51.340;12.326;2023-05-19T20:33:42;14.70;96.30
15997;DHT22;8103;51.340;12.326;2023-05-19T20:36:09;14.70;96.80
15997;DHT22;8103;51.340;12.326;2023-05-19T20:38:36;14.60;94.40
15997;DHT22;8103;51.340;12.326;2023-05-19T20:41:03;14.60;95.80
15997;DHT22;8103;51.340;12.326;2023-05-19T20:49:58;14.50;99.90
15997;DHT22;8103;51.340;12.326;2023-05-19T20:52:24;14.30;99.90
15997;DHT22;8103;51.340;12.326;2023-05-19T20:54:52;14.30;99.90
15997;DHT22;8103;51.340;12.326;2023-05-19T20:57:19;14.40;99.90
15997;DHT22;8103;51.340;12.326;2023-05-19T20:59:46;14.40;99.90
15997;DHT22;8103;51.340;12.326;2023-05-19T21:02:13;14.20;99.00
15997;DHT22;8103;51.340;12.326;2023-05-19T21:04:39;14.30;99.90
15997;DHT22;8103;51.340;12.326;2023-05-19T21:07:06;14.30;99.90
15997;DHT22;8103;51.340;12.326;2023-05-19T21:09:34;14.20;99.90
15997;DHT22;8103;51.340;12.326;2023-05-19T21:14:28;14.20;94.10
15997;DHT22;8103;51.340;12.326;2023-05-19T21:16:55;14.20;94.30
15997;DHT22;8103;51.340;12.326;2023-05-19T21:19:22;14.10;94.50
15997;DHT22;8103;51.340;12.326;2023-05-19T21:21:49;14.10;94.90
15997;DHT22;8103;51.340;12.326;2023-05-19T21:24:15;14.00;95.60
15997;DHT22;8103;51.340;12.326;2023-05-19T21:26:42;14.00;96.60
15997;DHT22;8103;51.340;12.326;2023-05-19T21:31:36;14.00;96.80
15997;DHT22;8103;51.340;12.326;2023-05-19T21:34:03;13.90;99.00
15997;DHT22;8103;51.340;12.326;2023-05-19T21:36:33;13.90;99.90
15997;DHT22;8103;51.340;12.326;2023-05-19T21:38:59;13.80;99.90
15997;DHT22;8103;51.340;12.326;2023-05-19T21:48:48;13.70;99.90
15997;DHT22;8103;51.340;12.326;2023-05-19T21:51:15;13.70;99.90
15997;DHT22;8103;51.340;12.326;2023-05-19T21:53:41;13.70;99.90
15997;DHT22;8103;51.340;12.326;2023-05-19T21:56:08;13.60;99.90
15997;DHT22;8103;51.340;12.326;2023-05-19T21:58:35;13.70;99.90
15997;DHT22;8103;51.340;12.326;2023-05-19T22:01:01;13.60;99.90
15997;DHT22;8103;51.340;12.326;2023-05-19T22:03:29;13.60;99.90
15997;DHT22;8103;51.340;12.326;2023-05-19T22:05:55;13.60;99.90
15997;DHT22;8103;51.340;12.326;2023-05-19T22:08:22;13.50;99.90
15997;DHT22;8103;51.340;12.326;2023-05-19T22:10:49;13.50;99.90
15997;DHT22;8103;51.340;12.326;2023-05-19T22:13:17;13.60;99.90
15997;DHT22;8103;51.340;12.326;2023-05-19T22:15:46;13.50;99.90
15997;DHT22;8103;51.340;12.326;2023-05-19T22:18:12;13.50;99.90
15997;DHT22;8103;51.340;12.326;2023-05-19T22:20:39;13.40;99.90
15997;DHT22;8103;51.340;12.326;2023-05-19T22:23:06;13.40;99.90
15997;DHT22;8103;51.340;12.326;2023-05-19T22:25:33;13.40;99.90
15997;DHT22;8103;51.340;12.326;2023-05-19T22:27:59;13.30;99.90
15997;DHT22;8103;51.340;12.326;2023-05-19T22:30:27;13.30;99.90
15997;DHT22;8103;51.340;12.326;2023-05-19T22:32:53;13.30;99.90
15997;DHT22;8103;51.340;12.326;2023-05-19T22:35:20;13.30;99.90
15997;DHT22;8103;51.340;12.326;2023-05-19T22:37:47;13.40;99.90
15997;DHT22;8103;51.340;12.326;2023-05-19T22:40:14;13.40;99.90
15997;DHT22;8103;51.340;12.326;2023-05-19T22:42:41;13.40;99.90